Time;durP1;ratioP1;P1;durP2;ratioP2;P2;SDS_P1;SDS_P2;PMS_P1;PMS_P2;Temp;Humidity;BMP_temperature;BMP_pressure;BME280_temperature;BME280_humidity;BME280_pressure;Samples;Min_cycle;Max_cycle;Signal;HPM_P1;HPM_P2
2022/01/31 00:00:09;;;;;;;27.00;5.68;;;3.40;99.90;;;;;;5013058;28;20045;-77
2022/01/31 00:02:35;;;;;;;23.05;5.03;;;3.40;99.90;;;;;;5013901;28;20056;-78
2022/01/31 00:05:02;;;;;;;24.88;5.18;;;3.40;99.90;;;;;;5013361;28;20037;-78
2022/01/31 00:07:27;;;;;;;22.10;4.60;;;3.40;99.90;;;;;;5031465;28;20049;-77
2022/01/31 00:09:53;;;;;;;17.33;4.75;;;3.40;99.90;;;;;;5031271;28;20124;-78
2022/01/31 00:12:20;;;;;;;16.35;4.88;;;4.10;99.90;;;;;;5031406;28;20041;-77
2022/01/31 00:14:49;;;;;;;17.52;4.32;;;3.70;99.90;;;;;;5013255;28;20103;-78
2022/01/31 00:17:17;;;;;;;24.95;5.03;;;3.40;99.90;;;;;;5031120;28;20052;-78
2022/01/31 00:19:44;;;;;;;20.27;4.68;;;3.40;99.90;;;;;;5023279;28;20034;-78
2022/01/31 00:22:12;;;;;;;20.55;3.95;;;3.50;99.90;;;;;;5013125;28;20049;-77
2022/01/31 00:24:38;;;;;;;25.92;5.35;;;3.40;99.90;;;;;;5031203;28;20438;-77
2022/01/31 00:27:05;;;;;;;17.00;3.78;;;3.50;99.90;;;;;;5030856;28;20049;-80
2022/01/31 00:29:31;;;;;;;20.98;5.22;;;3.50;99.90;;;;;;5012779;28;20045;-77
2022/01/31 00:31:57;;;;;;;25.42;5.85;;;3.50;99.90;;;;;;5030957;28;20050;-76
2022/01/31 00:34:23;;;;;;;15.02;5.20;;;3.50;99.90;;;;;;4996356;28;20116;-77
2022/01/31 00:36:49;;;;;;;10.43;3.97;;;3.50;99.90;;;;;;5030802;28;20124;-77
2022/01/31 00:39:15;;;;;;;20.52;5.00;;;3.60;99.90;;;;;;5030722;28;20041;-77
2022/01/31 00:41:41;;;;;;;26.42;4.75;;;3.50;99.90;;;;;;5030431;28;20034;-77
2022/01/31 00:46:42;;;;;;;29.15;5.25;;;3.60;99.90;;;;;;5012775;28;20076;-77
2022/01/31 00:51:53;;;;;;;21.00;5.80;;;3.60;99.90;;;;;;5012583;28;20057;-76
2022/01/31 00:54:19;;;;;;;16.35;5.25;;;3.60;99.90;;;;;;5012658;28;20484;-77
2022/01/31 00:56:44;;;;;;;20.30;6.00;;;3.60;99.90;;;;;;5030528;28;20088;-77
2022/01/31 00:59:10;;;;;;;27.92;6.20;;;3.60;99.90;;;;;;5030487;28;20045;-77
2022/01/31 01:01:36;;;;;;;29.58;6.20;;;3.60;99.90;;;;;;5011918;28;20053;-76
2022/01/31 01:04:01;;;;;;;21.92;6.10;;;3.60;99.90;;;;;;5030137;28;20069;-77
2022/01/31 01:06:27;;;;;;;22.10;5.93;;;3.60;99.90;;;;;;5030395;28;20037;-78
2022/01/31 01:08:53;;;;;;;29.95;6.97;;;3.60;99.90;;;;;;5012566;28;20047;-78
2022/01/31 01:11:18;;;;;;;19.95;5.72;;;3.60;99.90;;;;;;5030376;28;20524;-77
2022/01/31 01:13:44;;;;;;;18.48;7.20;;;3.60;99.90;;;;;;5030152;28;20041;-77
2022/01/31 01:16:10;;;;;;;26.38;6.60;;;3.60;99.90;;;;;;5030205;28;20037;-77
2022/01/31 01:18:35;;;;;;;27.95;7.75;;;3.60;99.90;;;;;;5029404;28;20699;-78
2022/01/31 01:21:01;;;;;;;22.40;6.75;;;3.60;99.90;;;;;;5004719;28;20763;-78
2022/01/31 01:23:27;;;;;;;31.27;7.75;;;3.60;99.90;;;;;;5029974;28;20045;-80
2022/01/31 01:25:52;;;;;;;33.78;8.98;;;3.60;99.90;;;;;;5030012;28;20038;-79
2022/01/31 01:28:21;;;;;;;27.45;9.38;;;3.60;99.90;;;;;;5030101;28;20045;-80
2022/01/31 01:30:47;;;;;;;32.20;8.77;;;3.60;99.90;;;;;;5030038;28;20038;-80
2022/01/31 01:33:19;;;;;;;31.48;9.93;;;3.60;99.90;;;;;;5012198;28;20064;-79
2022/01/31 01:35:47;;;;;;;23.50;9.13;;;4.20;99.90;;;;;;5029682;28;20092;-80
2022/01/31 01:38:16;;;;;;;25.00;10.07;;;3.60;99.90;;;;;;5011953;28;20508;-82
2022/01/31 01:40:42;;;;;;;30.58;10.10;;;3.50;99.90;;;;;;5030227;28;20321;-76
2022/01/31 01:43:09;;;;;;;24.45;9.98;;;4.30;99.90;;;;;;5004454;28;20070;-80
2022/01/31 01:45:35;;;;;;;26.13;9.07;;;3.40;99.90;;;;;;4980916;28;20050;-79
2022/01/31 01:48:01;;;;;;;28.00;10.52;;;3.70;99.90;;;;;;5011023;28;20077;-80
2022/01/31 01:50:27;;;;;;;22.80;11.00;;;3.40;99.90;;;;;;5012319;28;20100;-80
2022/01/31 01:52:53;;;;;;;30.52;10.95;;;3.40;99.90;;;;;;5029255;28;20052;-79
2022/01/31 01:55:19;;;;;;;22.08;9.70;;;3.30;99.90;;;;;;5029764;28;20041;-81
2022/01/31 01:57:45;;;;;;;23.48;9.23;;;3.30;99.90;;;;;;5029566;28;20512;-82
2022/01/31 02:00:18;;;;;;;16.48;8.18;;;3.30;99.90;;;;;;5029120;28;20049;-80
2022/01/31 02:02:45;;;;;;;16.63;8.52;;;3.20;99.90;;;;;;5029282;28;20056;-79
2022/01/31 02:05:11;;;;;;;19.95;9.18;;;3.20;99.90;;;;;;5011823;28;20107;-79
2022/01/31 02:07:38;;;;;;;18.92;9.38;;;3.60;99.90;;;;;;5029316;28;20049;-81
2022/01/31 02:10:06;;;;;;;18.77;8.35;;;3.10;99.90;;;;;;5011556;28;20056;-80
2022/01/31 02:12:43;;;;;;;19.55;9.18;;;3.00;99.90;;;;;;5029750;28;20116;-81
2022/01/31 02:15:10;;;;;;;14.57;7.28;;;3.00;99.90;;;;;;5011469;28;20167;-81
2022/01/31 02:17:36;;;;;;;15.25;8.73;;;3.00;99.90;;;;;;5011517;28;20045;-83
2022/01/31 02:20:05;;;;;;;17.23;8.50;;;2.90;99.90;;;;;;5029276;28;20053;-78
2022/01/31 02:22:30;;;;;;;16.77;9.05;;;2.90;99.90;;;;;;5029744;28;20045;-83
2022/01/31 02:24:56;;;;;;;16.92;7.82;;;2.90;99.90;;;;;;5029752;28;20499;-79
2022/01/31 02:27:36;;;;;;;15.35;8.60;;;2.90;99.90;;;;;;5029933;28;20049;-80
2022/01/31 02:30:05;;;;;;;17.23;9.85;;;2.90;99.90;;;;;;5032991;28;20056;-80
2022/01/31 02:32:31;;;;;;;16.95;9.30;;;2.90;99.90;;;;;;5033560;28;20037;-80
2022/01/31 02:34:57;;;;;;;17.35;9.27;;;2.90;99.90;;;;;;5015069;28;20049;-80
2022/01/31 02:37:22;;;;;;;17.35;9.27;;;2.90;99.90;;;;;;5015354;28;20051;-79
2022/01/31 02:39:48;;;;;;;18.67;9.68;;;3.70;99.90;;;;;;5015645;28;20049;-80
2022/01/31 02:42:14;;;;;;;19.63;10.20;;;2.90;99.90;;;;;;5014985;28;20056;-82
2022/01/31 02:44:41;;;;;;;18.58;9.80;;;3.60;99.90;;;;;;5033130;28;20050;-80
2022/01/31 02:47:15;;;;;;;22.65;9.80;;;3.70;99.90;;;;;;5015276;28;20407;-81
2022/01/31 02:49:52;;;;;;;15.40;7.50;;;3.00;99.90;;;;;;5014566;28;20175;-81
2022/01/31 02:52:18;;;;;;;24.83;8.55;;;3.10;99.90;;;;;;5032885;28;20136;-79
2022/01/31 02:54:44;;;;;;;19.35;8.57;;;3.10;99.90;;;;;;5001306;28;20053;-79
2022/01/31 02:57:10;;;;;;;19.92;9.70;;;3.20;99.90;;;;;;5030282;28;20060;-80
2022/01/31 02:59:36;;;;;;;18.05;8.35;;;3.20;99.90;;;;;;5015212;28;20049;-79
2022/01/31 03:02:02;;;;;;;15.98;8.80;;;3.30;99.90;;;;;;5031896;28;20056;-81
2022/01/31 03:04:28;;;;;;;17.30;7.82;;;3.30;99.90;;;;;;5032554;28;20152;-78
2022/01/31 03:06:55;;;;;;;19.40;7.80;;;3.40;99.90;;;;;;5013750;28;20046;-80
2022/01/31 03:09:21;;;;;;;12.88;7.00;;;3.40;99.90;;;;;;5031790;28;20132;-81
2022/01/31 03:11:47;;;;;;;16.02;7.82;;;3.50;99.90;;;;;;5032538;28;20048;-80
2022/01/31 03:14:16;;;;;;;15.23;8.68;;;3.50;99.90;;;;;;5032226;28;20037;-80
2022/01/31 03:16:44;;;;;;;13.55;6.50;;;3.50;99.90;;;;;;5007346;28;20053;-80
2022/01/31 03:19:10;;;;;;;9.55;5.32;;;3.60;99.90;;;;;;5032412;28;20679;-82
2022/01/31 03:21:37;;;;;;;20.00;6.05;;;3.70;99.90;;;;;;5032147;28;20038;-80
2022/01/31 03:24:03;;;;;;;18.50;5.32;;;3.80;99.90;;;;;;5014361;28;20077;-79
2022/01/31 03:26:29;;;;;;;13.05;5.03;;;3.80;99.90;;;;;;5032073;28;20705;-81
2022/01/31 03:28:54;;;;;;;17.65;4.95;;;4.00;99.90;;;;;;5032172;28;20041;-81
2022/01/31 03:31:21;;;;;;;24.23;4.70;;;5.30;99.90;;;;;;5031910;28;20049;-80
2022/01/31 03:33:51;;;;;;;25.05;4.97;;;4.40;99.90;;;;;;5031931;28;20099;-80
2022/01/31 03:36:17;;;;;;;33.08;4.88;;;4.60;99.90;;;;;;5031762;28;20416;-80
2022/01/31 03:38:43;;;;;;;29.67;4.88;;;4.70;99.90;;;;;;5013305;28;20064;-80
2022/01/31 03:41:15;;;;;;;26.48;4.95;;;4.80;99.90;;;;;;5013689;28;20041;-80
2022/01/31 03:43:41;;;;;;;26.20;4.03;;;5.00;99.90;;;;;;5031507;28;20045;-80
2022/01/31 03:46:07;;;;;;;24.52;4.03;;;5.10;99.90;;;;;;5031699;28;20041;-81
2022/01/31 03:48:33;;;;;;;30.75;4.05;;;5.10;99.90;;;;;;5031924;28;20148;-78
2022/01/31 03:51:02;;;;;;;25.95;5.40;;;6.20;99.90;;;;;;5031742;28;20073;-78
2022/01/31 03:53:28;;;;;;;18.77;4.00;;;5.20;99.90;;;;;;5031874;28;20053;-81
2022/01/31 03:55:54;;;;;;;24.90;3.85;;;5.30;99.90;;;;;;4981586;28;20061;-79
2022/01/31 03:58:19;;;;;;;25.00;4.13;;;5.30;99.90;;;;;;5014191;28;20037;-80
2022/01/31 04:00:45;;;;;;;18.25;3.17;;;5.40;99.90;;;;;;5027707;28;20065;-79
2022/01/31 04:03:11;;;;;;;23.27;4.22;;;5.40;99.90;;;;;;5012281;28;20481;-79
2022/01/31 04:05:37;;;;;;;23.48;2.85;;;5.40;99.90;;;;;;5011710;28;20433;-80
2022/01/31 04:08:07;;;;;;;15.18;3.05;;;5.40;99.90;;;;;;4993487;28;20050;-80
2022/01/31 04:10:35;;;;;;;20.85;2.90;;;5.40;99.90;;;;;;5011849;28;20045;-80
2022/01/31 04:13:00;;;;;;;21.98;3.47;;;5.40;99.90;;;;;;5011434;28;20448;-79
2022/01/31 04:15:26;;;;;;;15.50;2.63;;;6.30;99.90;;;;;;4993794;28;20053;-80
2022/01/31 04:17:52;;;;;;;18.95;2.80;;;6.20;99.90;;;;;;5011402;28;20044;-80
2022/01/31 04:20:19;;;;;;;14.68;2.58;;;5.30;99.90;;;;;;5011308;28;20060;-81
2022/01/31 04:23:08;;;;;;;16.95;2.13;;;5.20;99.90;;;;;;5011804;28;20080;-85
2022/01/31 04:25:45;;;;;;;14.00;1.80;;;5.00;99.90;;;;;;5011265;28;20042;-82
2022/01/31 04:28:24;;;;;;;11.00;1.20;;;4.90;99.90;;;;;;4977246;28;20129;-81
2022/01/31 04:30:57;;;;;;;21.60;2.22;;;5.60;99.90;;;;;;5011347;28;20038;-80
2022/01/31 04:33:24;;;;;;;15.93;1.90;;;4.70;99.90;;;;;;4961409;28;20104;-79
2022/01/31 04:35:49;;;;;;;12.85;2.53;;;4.70;99.90;;;;;;5010950;28;20038;-82
2022/01/31 04:38:15;;;;;;;19.48;3.15;;;4.70;99.90;;;;;;4993341;28;20108;-80
2022/01/31 04:40:41;;;;;;;24.25;3.80;;;4.70;99.90;;;;;;4993272;28;20124;-80
2022/01/31 04:43:07;;;;;;;16.02;2.78;;;4.80;99.90;;;;;;4992985;28;20052;-77
2022/01/31 04:45:33;;;;;;;22.70;3.08;;;4.80;99.90;;;;;;5011282;28;20045;-81
2022/01/31 04:47:58;;;;;;;21.42;2.95;;;4.90;99.90;;;;;;5011304;28;20038;-78
2022/01/31 04:50:24;;;;;;;23.52;3.25;;;4.90;99.90;;;;;;4993539;28;20120;-81
2022/01/31 04:52:50;;;;;;;23.63;3.05;;;4.90;99.90;;;;;;5009846;28;20401;-81
2022/01/31 04:55:15;;;;;;;23.50;3.30;;;4.90;99.90;;;;;;4992670;28;20046;-80
2022/01/31 04:57:41;;;;;;;23.98;2.97;;;5.00;99.90;;;;;;4993041;28;20103;-83
2022/01/31 05:00:09;;;;;;;25.65;3.30;;;5.00;99.90;;;;;;5010656;28;20078;-79
2022/01/31 05:02:36;;;;;;;20.20;2.70;;;5.00;99.90;;;;;;5029719;28;20436;-79
2022/01/31 05:05:03;;;;;;;21.10;2.47;;;5.00;99.90;;;;;;5012492;28;20083;-87
2022/01/31 05:07:28;;;;;;;16.75;1.77;;;5.00;99.90;;;;;;5029729;28;20061;-80
2022/01/31 05:09:54;;;;;;;8.82;1.85;;;4.90;99.90;;;;;;5030300;28;20908;-81
2022/01/31 05:12:20;;;;;;;7.38;0.93;;;4.70;99.90;;;;;;5012439;28;20056;-83
2022/01/31 05:14:45;;;;;;;8.00;1.17;;;4.60;99.90;;;;;;5030534;28;20045;-81
2022/01/31 05:17:11;;;;;;;10.25;1.23;;;4.60;99.90;;;;;;5012477;28;20041;-85
2022/01/31 05:19:37;;;;;;;3.42;0.90;;;4.50;99.90;;;;;;5030014;28;20484;-81
2022/01/31 05:22:03;;;;;;;6.05;0.75;;;4.50;99.90;;;;;;5012436;28;20057;-80
2022/01/31 05:24:29;;;;;;;16.17;1.45;;;4.40;99.90;;;;;;5029713;28;20174;-80
2022/01/31 05:26:55;;;;;;;11.55;1.15;;;5.30;99.90;;;;;;5029995;28;20552;-82
2022/01/31 05:29:21;;;;;;;9.95;1.50;;;4.40;99.90;;;;;;5012259;28;20147;-83
2022/01/31 05:31:52;;;;;;;12.57;1.48;;;5.30;99.90;;;;;;5029938;28;20405;-82
2022/01/31 05:34:20;;;;;;;7.30;1.15;;;5.20;99.90;;;;;;5012299;28;20128;-79
2022/01/31 05:36:46;;;;;;;12.85;1.23;;;4.40;99.90;;;;;;5029492;28;20045;-83
2022/01/31 05:39:11;;;;;;;15.07;2.03;;;4.50;99.90;;;;;;5029523;28;20110;-83
2022/01/31 05:41:37;;;;;;;17.38;1.80;;;4.40;99.90;;;;;;5012098;28;20045;-81
2022/01/31 05:44:03;;;;;;;9.90;1.42;;;5.30;99.90;;;;;;5012147;28;20041;-82
2022/01/31 05:46:29;;;;;;;9.82;1.45;;;4.40;99.90;;;;;;5012022;28;20111;-79
2022/01/31 05:48:54;;;;;;;17.25;1.95;;;4.50;99.90;;;;;;4995018;28;20092;-81
2022/01/31 05:51:22;;;;;;;7.35;1.10;;;5.30;99.90;;;;;;5029645;28;20045;-86
2022/01/31 05:53:50;;;;;;;11.15;1.38;;;4.50;99.90;;;;;;5011656;28;20412;-80
2022/01/31 05:56:17;;;;;;;15.63;1.65;;;4.50;99.90;;;;;;5011989;28;20075;-79
2022/01/31 05:58:44;;;;;;;14.23;1.70;;;4.50;99.90;;;;;;5029588;28;20138;-82
2022/01/31 06:01:10;;;;;;;8.65;1.30;;;4.50;99.90;;;;;;5029024;28;20623;-78
2022/01/31 06:03:37;;;;;;;16.98;2.22;;;4.50;99.90;;;;;;5011467;28;20408;-84
2022/01/31 06:06:04;;;;;;;16.52;1.70;;;4.50;99.90;;;;;;5029119;28;20424;-84
2022/01/31 06:08:30;;;;;;;17.23;2.20;;;4.50;99.90;;;;;;5011234;28;20056;-81
2022/01/31 06:10:56;;;;;;;15.30;1.70;;;4.50;99.90;;;;;;5011871;28;20068;-81
2022/01/31 06:13:28;;;;;;;12.68;1.48;;;4.50;99.90;;;;;;5011058;28;20068;-83
2022/01/31 06:15:54;;;;;;;14.88;2.08;;;4.50;99.90;;;;;;5029556;28;20037;-80
2022/01/31 06:18:19;;;;;;;10.23;1.73;;;4.60;99.90;;;;;;5029027;28;20508;-82
2022/01/31 06:20:45;;;;;;;11.88;1.90;;;4.60;99.90;;;;;;5029395;28;20037;-81
2022/01/31 06:23:12;;;;;;;9.20;1.63;;;4.60;99.90;;;;;;5011736;28;20040;-79
2022/01/31 06:25:38;;;;;;;16.13;1.83;;;5.30;99.90;;;;;;5029522;28;20045;-80
2022/01/31 06:28:06;;;;;;;16.42;1.98;;;4.60;99.90;;;;;;5029368;28;20052;-82
2022/01/31 06:30:33;;;;;;;9.23;1.67;;;4.60;99.90;;;;;;4995455;28;20050;-81
2022/01/31 06:32:58;;;;;;;13.15;1.95;;;4.60;99.90;;;;;;5011474;28;20041;-83
2022/01/31 06:35:25;;;;;;;8.35;1.25;;;5.60;99.90;;;;;;5029207;28;20111;-86
2022/01/31 06:37:51;;;;;;;10.35;1.13;;;5.60;99.90;;;;;;5011000;28;20049;-82
2022/01/31 06:40:17;;;;;;;9.77;1.10;;;4.60;99.90;;;;;;5028672;28;20052;-82
2022/01/31 06:42:43;;;;;;;7.75;1.35;;;4.50;99.90;;;;;;5028868;28;20049;-83
2022/01/31 06:45:09;;;;;;;8.40;1.10;;;4.60;99.90;;;;;;5029240;28;20128;-80
2022/01/31 06:47:35;;;;;;;14.02;1.52;;;4.60;99.90;;;;;;5029082;28;20045;-81
2022/01/31 06:50:00;;;;;;;10.73;1.77;;;4.60;99.90;;;;;;5029022;28;20037;-81
2022/01/31 06:52:31;;;;;;;12.48;2.33;;;4.60;99.90;;;;;;5011399;28;20084;-82
2022/01/31 06:55:01;;;;;;;17.55;2.00;;;5.20;99.90;;;;;;5028475;28;20444;-81
2022/01/31 06:57:33;;;;;;;8.85;1.58;;;4.60;99.90;;;;;;4994615;28;20045;-83
2022/01/31 07:00:06;;;;;;;15.88;1.35;;;4.70;99.90;;;;;;5011039;28;20111;-83
2022/01/31 07:02:32;;;;;;;16.85;1.70;;;4.70;99.90;;;;;;5028995;28;20559;-80
2022/01/31 07:05:00;;;;;;;13.02;1.60;;;4.70;99.90;;;;;;5029069;28;20133;-80
2022/01/31 07:07:26;;;;;;;15.70;2.17;;;4.80;99.90;;;;;;5011160;28;20041;-81
2022/01/31 07:09:51;;;;;;;9.15;1.33;;;4.80;99.90;;;;;;5028820;28;20386;-82
2022/01/31 07:12:17;;;;;;;15.00;1.58;;;5.30;99.90;;;;;;5028624;28;20493;-80
2022/01/31 07:14:43;;;;;;;15.70;2.00;;;4.80;99.90;;;;;;5028793;28;20041;-84
2022/01/31 07:17:09;;;;;;;11.95;1.55;;;5.60;99.90;;;;;;5014523;28;20050;-83
2022/01/31 07:19:38;;;;;;;14.27;1.40;;;5.30;99.90;;;;;;5024570;28;20091;-85
2022/01/31 07:22:07;;;;;;;11.00;1.73;;;5.40;99.90;;;;;;5015042;28;20079;-85
2022/01/31 07:27:02;;;;;;;11.77;1.80;;;4.90;99.90;;;;;;5032796;28;20455;-82
2022/01/31 07:29:29;;;;;;;15.90;1.55;;;4.70;99.90;;;;;;5032351;28;20075;-81
2022/01/31 07:31:55;;;;;;;12.35;1.40;;;5.70;99.90;;;;;;5014577;28;20049;-82
2022/01/31 07:34:21;;;;;;;10.13;1.42;;;4.60;99.90;;;;;;5014356;28;20404;-84
2022/01/31 07:36:48;;;;;;;14.40;2.53;;;4.80;99.90;;;;;;5032150;28;20072;-84
2022/01/31 07:39:15;;;;;;;10.93;1.33;;;5.70;99.90;;;;;;5032124;28;20041;-82
2022/01/31 07:41:41;;;;;;;12.20;1.80;;;4.60;99.90;;;;;;5031609;28;20524;-83
2022/01/31 07:44:06;;;;;;;17.13;1.70;;;5.50;99.90;;;;;;5014104;28;20041;-80
2022/01/31 07:46:32;;;;;;;6.38;1.40;;;5.10;99.90;;;;;;5032774;28;20045;-82
2022/01/31 07:48:58;;;;;;;10.93;2.08;;;5.40;99.90;;;;;;4997327;28;20062;-82
2022/01/31 07:51:24;;;;;;;6.43;1.23;;;4.60;99.90;;;;;;4998013;28;20061;-82
2022/01/31 07:53:49;;;;;;;15.38;1.30;;;4.60;99.90;;;;;;5031715;28;20041;-81
2022/01/31 07:56:16;;;;;;;7.55;1.75;;;4.70;99.90;;;;;;5031108;28;20049;-81
2022/01/31 07:58:42;;;;;;;10.85;1.73;;;4.70;99.90;;;;;;5013982;28;20060;-82
2022/01/31 08:01:08;;;;;;;13.93;1.42;;;4.70;99.90;;;;;;5031392;28;20791;-81
2022/01/31 08:03:35;;;;;;;13.30;1.73;;;4.70;99.90;;;;;;5031655;28;20077;-81
2022/01/31 08:06:02;;;;;;;13.85;2.35;;;4.80;99.90;;;;;;5013741;28;20044;-84
2022/01/31 08:08:29;;;;;;;11.88;1.63;;;4.80;99.90;;;;;;5013458;28;20120;-80
2022/01/31 08:10:59;;;;;;;13.50;1.83;;;5.50;99.90;;;;;;5030834;28;20057;-80
2022/01/31 08:13:25;;;;;;;19.38;2.17;;;4.80;99.90;;;;;;5030596;28;20045;-81
2022/01/31 08:16:10;;;;;;;12.35;1.67;;;5.30;99.90;;;;;;5027407;28;20107;-83
2022/01/31 08:18:38;;;;;;;17.33;1.70;;;4.80;99.90;;;;;;4992413;28;20551;-77
2022/01/31 08:21:05;;;;;;;12.98;1.75;;;5.70;99.90;;;;;;4993888;28;20140;-83
2022/01/31 08:23:31;;;;;;;10.40;1.70;;;5.40;99.90;;;;;;5011662;28;20038;-78
2022/01/31 08:26:00;;;;;;;16.05;2.28;;;4.90;99.90;;;;;;5010996;28;20073;-80
2022/01/31 08:28:36;;;;;;;8.15;1.52;;;5.20;99.90;;;;;;4992313;28;20096;-82
2022/01/31 08:31:47;;;;;;;10.27;1.60;;;4.80;99.90;;;;;;5011675;28;20056;-79
2022/01/31 08:36:24;;;;;;;13.02;1.88;;;5.40;99.90;;;;;;4992263;28;20057;-81
2022/01/31 08:38:50;;;;;;;13.15;1.45;;;5.00;99.90;;;;;;4992035;28;20137;-83
2022/01/31 08:41:16;;;;;;;14.77;2.00;;;5.00;99.90;;;;;;4996333;28;20429;-81
2022/01/31 08:43:42;;;;;;;14.07;2.22;;;5.00;99.90;;;;;;4993049;28;20076;-84
2022/01/31 08:46:10;;;;;;;12.57;2.25;;;5.10;99.90;;;;;;5010814;28;20108;-82
2022/01/31 08:48:36;;;;;;;12.60;1.77;;;5.10;99.90;;;;;;4993138;28;20060;-81
2022/01/31 08:51:03;;;;;;;16.52;2.22;;;5.20;99.90;;;;;;5010256;28;20053;-83
2022/01/31 08:53:30;;;;;;;14.77;1.73;;;5.20;99.90;;;;;;4992717;28;20050;-80
2022/01/31 08:56:00;;;;;;;12.48;1.40;;;5.30;99.90;;;;;;4992560;28;20053;-81
2022/01/31 08:58:26;;;;;;;13.13;1.42;;;5.30;99.90;;;;;;5010302;28;20439;-82
2022/01/31 09:01:00;;;;;;;16.73;1.88;;;5.40;99.90;;;;;;4991310;28;20088;-81
2022/01/31 09:06:01;;;;;;;;;;;6.00;99.90;;;;;;5009694;28;20440;-80
2022/01/31 09:08:27;;;;;;;11.50;1.60;;;4.90;99.90;;;;;;4991252;28;20004;-80
2022/01/31 09:10:53;;;;;;;16.58;1.65;;;5.40;99.90;;;;;;4991336;28;20046;-80
2022/01/31 09:13:19;;;;;;;17.02;1.88;;;6.60;99.90;;;;;;4974760;28;20077;-80
2022/01/31 09:15:45;;;;;;;12.82;1.92;;;5.50;99.90;;;;;;5008799;28;20046;-79
2022/01/31 09:18:11;;;;;;;12.30;1.55;;;6.60;99.90;;;;;;5006345;28;20789;-83
2022/01/31 09:20:37;;;;;;;9.60;2.05;;;5.60;99.90;;;;;;4973219;28;20116;-78
2022/01/31 09:23:04;;;;;;;17.75;1.90;;;5.60;99.90;;;;;;4973725;28;20128;-81
2022/01/31 09:25:30;;;;;;;10.82;1.67;;;5.70;99.90;;;;;;4988343;28;20048;-82
2022/01/31 09:27:57;;;;;;;17.98;2.05;;;5.90;99.90;;;;;;4992454;28;20119;-83
2022/01/31 09:30:23;;;;;;;11.82;1.80;;;6.30;99.90;;;;;;5006365;28;20046;-81
2022/01/31 09:32:49;;;;;;;16.63;1.77;;;6.00;99.90;;;;;;4992719;28;20091;-79
2022/01/31 09:35:14;;;;;;;16.02;1.67;;;6.00;99.90;;;;;;5001331;23;20478;-80
2022/01/31 09:37:40;;;;;;;12.60;1.60;;;6.00;99.90;;;;;;5030385;28;20052;-82
2022/01/31 09:40:07;;;;;;;18.40;2.42;;;6.10;99.90;;;;;;5013761;28;20053;-85
2022/01/31 09:42:43;;;;;;;16.88;1.73;;;6.20;99.90;;;;;;5031014;28;20452;-86
2022/01/31 09:50:18;;;;;;;6.75;1.48;;;6.60;99.90;;;;;;5013128;28;20064;-83
2022/01/31 09:52:44;;;;;;;11.50;1.35;;;6.90;99.90;;;;;;5046486;28;20053;-84
2022/01/31 09:55:10;;;;;;;12.35;1.20;;;6.80;99.90;;;;;;5013049;28;20076;-84
2022/01/31 09:57:35;;;;;;;8.07;1.20;;;7.00;99.90;;;;;;5030872;28;20037;-85
2022/01/31 10:00:04;;;;;;;12.15;1.38;;;6.80;99.90;;;;;;5013094;28;20797;-84
2022/01/31 10:02:29;;;;;;;13.35;1.42;;;7.00;99.90;;;;;;5025291;28;20042;-85
2022/01/31 10:04:56;;;;;;;14.90;1.50;;;7.10;99.90;;;;;;5026941;28;20046;-83
2022/01/31 10:07:21;;;;;;;10.68;1.60;;;7.20;99.90;;;;;;5030696;28;20037;-85
2022/01/31 10:09:48;;;;;;;18.00;1.77;;;7.70;99.90;;;;;;5031383;28;20052;-86
2022/01/31 10:17:41;;;;;;;11.30;1.27;;;7.80;99.90;;;;;;5013322;28;20103;-84
2022/01/31 10:20:29;;;;;;;15.60;1.55;;;7.10;99.90;;;;;;5031413;28;20288;-82
2022/01/31 10:22:55;;;;;;;11.00;1.33;;;7.00;99.90;;;;;;5031174;28;20042;-85
2022/01/31 10:25:24;;;;;;;15.07;2.20;;;7.30;99.90;;;;;;5046636;28;20100;-83
2022/01/31 10:27:54;;;;;;;18.95;1.85;;;7.40;99.90;;;;;;5046690;28;20049;-85
2022/01/31 10:30:26;;;;;;;11.48;1.40;;;7.90;99.90;;;;;;5013556;28;20534;-83
2022/01/31 10:32:53;;;;;;;17.77;3.03;;;7.30;99.90;;;;;;5031046;28;20060;-83
2022/01/31 10:35:32;;;;;;;16.30;1.67;;;8.20;99.90;;;;;;5030924;28;20092;-83
2022/01/31 10:38:03;;;;;;;12.10;1.45;;;7.70;99.90;;;;;;5030870;28;20550;-84
2022/01/31 10:51:54;;;;;;;18.77;1.48;;;8.40;99.90;;;;;;5016667;28;20130;-82
2022/01/31 10:56:51;;;;;;;11.43;1.20;;;8.30;99.90;;;;;;5034419;28;20085;-83
2022/01/31 10:59:26;;;;;;;13.88;1.73;;;9.40;99.90;;;;;;5034134;28;20565;-84
2022/01/31 11:01:53;;;;;;;;;;;8.40;99.90;;;;;;5035064;28;20083;-82
2022/01/31 11:04:18;;;;;;;21.05;2.33;;;9.10;99.90;;;;;;5034603;28;19928;-83
2022/01/31 11:06:47;;;;;;;14.30;1.90;;;8.70;99.90;;;;;;5016571;28;20041;-82
2022/01/31 11:09:15;;;;;;;25.30;2.78;;;8.70;99.90;;;;;;5016582;28;20563;-84
2022/01/31 11:11:46;;;;;;;16.13;2.08;;;8.60;99.90;;;;;;5034094;28;20514;-84
2022/01/31 11:14:13;;;;;;;15.73;1.83;;;8.40;99.90;;;;;;5016564;28;20041;-83
2022/01/31 11:16:42;;;;;;;18.67;2.50;;;8.40;99.90;;;;;;5034133;28;20057;-84
2022/01/31 11:19:10;;;;;;;16.92;2.83;;;8.40;99.90;;;;;;5016236;28;20137;-83
2022/01/31 11:21:39;;;;;;;27.13;2.80;;;8.90;99.90;;;;;;5034314;28;20042;-84
2022/01/31 11:24:27;;;;;;;16.45;2.03;;;8.40;99.90;;;;;;5016268;28;20450;-83
2022/01/31 11:27:04;;;;;;;22.35;2.97;;;8.40;99.90;;;;;;5033879;28;20045;-82
2022/01/31 11:29:34;;;;;;;21.88;2.63;;;8.50;99.90;;;;;;5034137;28;20056;-85
2022/01/31 11:32:01;;;;;;;22.40;2.60;;;9.10;99.90;;;;;;5033873;28;20050;-86
2022/01/31 11:34:27;;;;;;;22.20;2.67;;;8.70;99.90;;;;;;5013708;28;20088;-85
2022/01/31 11:36:53;;;;;;;16.33;2.22;;;9.60;99.90;;;;;;5001459;28;20065;-83
2022/01/31 11:39:19;;;;;;;18.88;2.67;;;9.50;99.90;;;;;;5013674;28;20052;-81
2022/01/31 11:41:58;;;;;;;10.70;1.92;;;8.90;99.90;;;;;;5013209;28;20057;-85
2022/01/31 11:44:50;;;;;;;22.75;2.35;;;8.70;99.90;;;;;;5022592;28;20483;-87
2022/01/31 11:47:21;;;;;;;14.75;2.65;;;8.70;99.90;;;;;;4987819;28;20050;-84
2022/01/31 11:49:47;;;;;;;17.63;2.40;;;8.80;99.90;;;;;;5013763;28;20046;-81
2022/01/31 11:52:14;;;;;;;13.55;1.80;;;9.20;99.90;;;;;;4995827;28;20420;-83
2022/01/31 11:54:56;;;;;;;16.77;2.05;;;9.80;99.90;;;;;;4995379;28;20097;-83
2022/01/31 11:57:29;;;;;;;13.90;1.98;;;8.80;99.90;;;;;;4995532;28;20369;-84
2022/01/31 11:59:58;;;;;;;12.93;2.00;;;8.90;99.90;;;;;;5006044;28;20034;-84
2022/01/31 12:02:25;;;;;;;18.95;2.20;;;8.90;99.90;;;;;;5012212;28;20469;-87
2022/01/31 12:04:52;;;;;;;11.68;1.92;;;9.30;99.90;;;;;;5012965;28;20030;-86
2022/01/31 12:07:40;;;;;;;17.00;2.72;;;9.10;99.90;;;;;;4995137;28;20057;-83
2022/01/31 12:10:32;;;;;;;23.58;3.03;;;8.90;99.90;;;;;;4989343;28;20915;-84
2022/01/31 12:13:11;;;;;;;12.23;1.95;;;8.80;99.90;;;;;;5012583;28;20086;-83
2022/01/31 12:23:54;;;;;;;19.00;2.35;;;8.60;99.90;;;;;;5013163;28;20042;-81
2022/01/31 12:26:33;;;;;;;17.55;2.70;;;9.10;99.90;;;;;;4995143;28;20133;-81
2022/01/31 12:29:31;;;;;;;24.42;2.15;;;8.50;99.90;;;;;;5012940;28;20052;-82
2022/01/31 12:32:17;;;;;;;18.15;2.67;;;8.40;99.90;;;;;;5008513;28;20500;-81
2022/01/31 12:35:07;;;;;;;14.50;2.67;;;8.90;99.90;;;;;;5006209;28;20613;-81
2022/01/31 12:37:40;;;;;;;22.50;2.65;;;9.00;99.90;;;;;;5021846;28;20084;-81
2022/01/31 12:40:18;;;;;;;16.23;2.65;;;8.70;99.90;;;;;;5032181;28;20049;-82
2022/01/31 12:45:54;;;;;;;17.90;2.60;;;8.20;99.90;;;;;;5013856;28;20057;-81
2022/01/31 12:48:24;;;;;;;21.33;2.42;;;8.20;99.90;;;;;;5031251;28;20045;-81
2022/01/31 12:50:53;;;;;;;18.85;2.78;;;9.00;99.90;;;;;;5031297;28;20059;-82
2022/01/31 12:53:27;;;;;;;19.02;2.60;;;8.20;99.90;;;;;;5011190;28;20103;-81
2022/01/31 12:56:25;;;;;;;28.60;2.78;;;8.20;99.90;;;;;;4995430;28;20050;-85
2022/01/31 12:58:54;;;;;;;15.85;2.90;;;8.20;99.90;;;;;;5029249;28;20072;-84
2022/01/31 13:01:33;;;;;;;25.77;2.85;;;8.60;99.90;;;;;;5013257;28;20519;-79
2022/01/31 13:04:01;;;;;;;18.90;2.55;;;8.10;99.90;;;;;;5011412;28;20085;-79
2022/01/31 13:06:34;;;;;;;26.17;2.85;;;8.00;99.90;;;;;;5031215;28;20492;-81
2022/01/31 13:09:07;;;;;;;15.35;3.17;;;8.10;99.90;;;;;;5012427;28;20037;-81
2022/01/31 13:11:33;;;;;;;26.20;2.67;;;8.10;99.90;;;;;;5031090;28;20106;-84
2022/01/31 13:14:10;;;;;;;22.98;3.22;;;8.80;99.90;;;;;;5029839;28;20049;-86
2022/01/31 13:16:38;;;;;;;23.90;3.13;;;8.10;99.90;;;;;;5030827;28;20053;-82
2022/01/31 13:19:20;;;;;;;20.30;2.78;;;8.50;99.90;;;;;;5022296;28;20119;-81
2022/01/31 13:21:48;;;;;;;25.02;2.92;;;8.80;99.90;;;;;;5018115;28;20080;-80
2022/01/31 13:24:15;;;;;;;29.27;3.55;;;7.90;99.90;;;;;;5031894;28;20046;-79
2022/01/31 13:26:58;;;;;;;28.25;3.33;;;7.90;99.90;;;;;;5031112;28;20053;-84
2022/01/31 13:29:40;;;;;;;28.50;3.92;;;7.90;99.90;;;;;;5014127;28;20080;-82
2022/01/31 13:32:19;;;;;;;23.02;3.88;;;7.80;99.90;;;;;;5030983;28;20164;-80
2022/01/31 13:34:48;;;;;;;30.05;3.55;;;7.80;99.90;;;;;;5029840;28;20129;-81
2022/01/31 13:37:44;;;;;;;33.35;3.85;;;7.80;99.90;;;;;;4998263;28;20492;-79
2022/01/31 13:40:45;;;;;;;22.50;3.28;;;7.80;99.90;;;;;;4963848;28;20445;-81
2022/01/31 13:43:22;;;;;;;27.55;3.92;;;8.10;99.90;;;;;;4974927;28;20066;-88